ムルマンスク の空港の天気 - METARとTAF

ムルマンスク空港 ( ULMM / MMK ) - ロシア ムルマンスク
飛行場実況気象(Metar)
観測時間02/17 17:30 MSK (02/17 14:30 UTC)
風向・風速北西 7m/s 瞬間風速12m/s
視程6000m
天気現象弱いしゅう雪 低い地吹雪
全天の8割程度の雲 雲底高度 640m
気温-6℃
湿度79%
気圧1007hPa
METARULMM 171430Z 32007G12MPS 6000 -SHSN DRSN BKN021CB M06/M09 Q1007 R31/690341 TEMPO 0400 +SHSN VV003 RMK QFE748
過去の天気等 Google飛行場航空写真 Wunderground天気予報

過去48時間のMETAR

飛行場予報(TAF)
発表時間: 2/17 16:55 MSK (2/17 13:55 UTC)
予報対象時間: 17日18時 MSK ~ 18日18時 MSK
風向・風速北西 5m/s 瞬間風速 10m/s
視程4000m
天気現象弱いしゅう雪 低い地吹雪
全天の8割程度の積乱雲 雲底高度 340m
17日18時 MSK ~ 18日9時 MSK に一時的に
風向・風速北北西 7m/s 瞬間風速 14m/s
視程300m
天気現象強いしゅう雪 高い地吹雪
全天を覆う雲 鉛直視程 60m
18日9時 MSK ~ 18日11時 MSK に徐々に
風向・風速南南西 3m/s
18日13時 MSK ~ 18日18時 MSK に一時的に
風向・風速南南東 3m/s
視程700m
天気現象強いしゅう雪
全天を覆う雲 鉛直視程 150m
TAF ULMM 171355Z 1715/1815 31005G10MPS 4000 -SHSN DRSN BKN011CB
TEMPO 1715/1806 33007G14MPS 0300 +SHSN BLSN VV002
BECMG 1806/1808 20003MPS
TEMPO 1810/1815 16003MPS 0700 +SHSN VV005